Time;durP1;ratioP1;P1;durP2;ratioP2;P2;SDS_P1;SDS_P2;PMS_P1;PMS_P2;Temp;Humidity;BMP_temperature;BMP_pressure;BME280_temperature;BME280_humidity;BME280_pressure;Samples;Min_cycle;Max_cycle;Signal;HPM_P1;HPM_P2
2021/08/10 00:00:31;;;;;;;3.90;3.55;;;;;;;22.50;50.33;95727.22;4991072;28;20038;-74
2021/08/10 00:02:56;;;;;;;5.55;3.50;;;;;;;22.45;50.32;95727.53;4989348;28;20145;-75
2021/08/10 00:05:22;;;;;;;3.90;3.60;;;;;;;22.53;50.06;95737.34;4989359;28;20066;-75
2021/08/10 00:07:47;;;;;;;4.35;3.90;;;;;;;22.53;50.21;95734.63;4988964;28;20038;-74
2021/08/10 00:10:13;;;;;;;4.03;3.58;;;;;;;22.34;50.27;95725.81;4989678;28;20456;-74
2021/08/10 00:12:38;;;;;;;5.30;3.45;;;;;;;22.17;50.43;95710.88;4983517;28;20484;-75
2021/08/10 00:15:07;;;;;;;7.75;3.95;;;;;;;22.42;50.39;95735.59;4989255;28;20125;-75
2021/08/10 00:17:32;;;;;;;4.82;4.35;;;;;;;22.40;50.13;95718.94;4989053;28;20034;-75
2021/08/10 00:19:58;;;;;;;5.15;4.68;;;;;;;22.31;50.35;95708.34;4989292;28;20045;-75
2021/08/10 00:22:25;;;;;;;5.38;4.40;;;;;;;22.40;50.00;95724.34;4985100;28;20052;-67
2021/08/10 00:24:51;;;;;;;5.55;5.05;;;;;;;22.18;50.31;95686.13;4990670;28;20684;-68
2021/08/10 00:27:16;;;;;;;4.82;4.43;;;;;;;21.86;50.57;95644.22;4980945;28;20054;-68
2021/08/10 00:29:42;;;;;;;7.18;4.97;;;;;;;22.14;50.17;95685.28;4988209;28;20039;-68
2021/08/10 00:32:08;;;;;;;5.18;4.68;;;;;;;21.96;50.26;95644.38;4988400;28;20039;-68
2021/08/10 00:34:33;;;;;;;5.50;4.55;;;;;;;22.06;50.36;95676.25;4987894;28;20038;-69
2021/08/10 00:36:59;;;;;;;5.35;4.75;;;;;;;22.05;50.06;95661.13;4989800;28;20109;-68
2021/08/10 00:39:24;;;;;;;5.25;4.68;;;;;;;22.14;50.08;95671.72;4988060;28;20126;-68
2021/08/10 00:41:50;;;;;;;9.43;5.05;;;;;;;22.09;50.20;95655.75;4985040;28;20477;-68
2021/08/10 00:44:15;;;;;;;4.97;4.57;;;;;;;22.14;50.32;95666.31;4989155;28;20034;-68
2021/08/10 00:46:41;;;;;;;5.85;4.30;;;;;;;22.09;50.06;95663.88;4991274;28;20042;-68
2021/08/10 00:49:06;;;;;;;5.70;4.13;;;;;;;22.15;49.91;95667.88;4991684;28;20034;-68
2021/08/10 00:51:32;;;;;;;4.60;4.20;;;;;;;22.12;49.88;95654.28;4993751;28;20011;-68
2021/08/10 00:53:59;;;;;;;6.13;5.00;;;;;;;22.45;49.75;95708.56;4991697;28;20030;-68
2021/08/10 00:56:24;;;;;;;5.80;5.20;;;;;;;22.17;49.85;95665.59;4990906;28;20031;-68
2021/08/10 00:58:50;;;;;;;8.45;5.32;;;;;;;22.46;49.40;95690.34;4970472;28;20043;-68
2021/08/10 01:01:15;;;;;;;4.97;4.57;;;;;;;22.03;50.07;95658.00;4991548;28;20036;-68
2021/08/10 01:03:41;;;;;;;5.40;4.13;;;;;;;22.48;49.94;95721.41;4993214;28;20015;-68
2021/08/10 01:06:10;;;;;;;5.45;4.97;;;;;;;22.40;49.90;95702.69;4991003;28;20038;-69
2021/08/10 01:08:38;;;;;;;6.30;5.47;;;;;;;22.48;49.89;95720.63;4991321;28;20030;-69
2021/08/10 01:11:15;;;;;;;6.60;6.00;;;;;;;22.40;50.00;95722.44;4991218;28;20057;-69
2021/08/10 01:13:49;;;;;;;7.22;5.88;;;;;;;22.11;50.02;95688.72;4985776;28;20126;-68
2021/08/10 01:16:33;;;;;;;7.10;6.43;;;;;;;22.01;50.08;95665.72;4989581;28;20026;-68
2021/08/10 01:19:29;;;;;;;7.70;6.05;;;;;;;22.30;50.23;95721.13;5008508;28;20701;-68
2021/08/10 01:21:58;;;;;;;5.95;5.35;;;;;;;21.93;50.26;95672.16;4991475;28;20045;-70
2021/08/10 01:24:30;;;;;;;7.50;5.82;;;;;;;21.73;50.37;95644.38;4991346;28;20046;-67
2021/08/10 01:27:17;;;;;;;5.85;5.35;;;;;;;22.21;50.36;95717.88;4987609;28;20083;-68
2021/08/10 01:30:10;;;;;;;5.97;5.50;;;;;;;21.77;50.64;95653.34;4983359;28;20392;-68
2021/08/10 01:32:37;;;;;;;7.25;5.93;;;;;;;21.70;50.86;95650.53;4991224;28;20072;-68
2021/08/10 01:35:03;;;;;;;6.40;5.80;;;;;;;21.76;50.73;95653.72;4973374;28;20030;-68
2021/08/10 01:37:32;;;;;;;6.53;6.00;;;;;;;21.78;50.55;95673.09;4990285;28;20031;-68
2021/08/10 01:40:00;;;;;;;6.30;5.22;;;;;;;21.89;50.86;95678.66;4992750;28;20030;-68
2021/08/10 01:42:27;;;;;;;5.43;5.03;;;;;;;21.87;50.49;95662.00;4986520;28;20052;-68
2021/08/10 01:44:57;;;;;;;7.03;6.40;;;;;;;21.90;50.45;95661.28;4990646;28;20039;-70
2021/08/10 01:47:23;;;;;;;6.90;6.25;;;;;;;21.73;50.38;95641.69;4990273;28;20066;-67
2021/08/10 01:49:51;;;;;;;5.80;5.28;;;;;;;22.11;50.52;95704.19;4990631;28;20058;-68
2021/08/10 01:52:20;;;;;;;7.50;6.78;;;;;;;21.73;50.52;95636.25;4990032;28;20059;-68
2021/08/10 01:54:47;;;;;;;7.32;6.43;;;;;;;21.72;50.38;95642.06;4992652;28;20033;-69
2021/08/10 01:57:14;;;;;;;6.85;6.35;;;;;;;21.64;50.73;95624.13;4986212;28;20035;-68
2021/08/10 01:59:40;;;;;;;5.07;4.68;;;;;;;21.94;50.77;95675.66;4990133;28;20030;-68
2021/08/10 02:02:07;;;;;;;4.65;4.25;;;;;;;21.77;50.73;95647.94;4990419;28;20666;-68
2021/08/10 02:04:33;;;;;;;6.53;5.00;;;;;;;21.37;51.01;95620.59;4990324;28;20045;-68
2021/08/10 02:07:00;;;;;;;4.95;4.55;;;;;;;21.24;51.36;95615.34;4992034;28;20054;-68
2021/08/10 02:09:27;;;;;;;5.88;5.38;;;;;;;21.99;50.82;95694.31;4989981;28;20049;-68
2021/08/10 02:11:54;;;;;;;8.25;4.20;;;;;;;21.49;50.87;95623.88;4989126;28;20042;-68
2021/08/10 02:14:25;;;;;;;5.80;5.03;;;;;;;21.90;51.03;95691.06;4985272;28;20125;-68
2021/08/10 02:16:54;;;;;;;8.45;6.03;;;;;;;21.59;50.72;95636.03;4988956;28;20463;-68
2021/08/10 02:19:20;;;;;;;7.40;6.70;;;;;;;21.75;50.64;95644.00;4987859;28;20146;-68
2021/08/10 02:21:47;;;;;;;7.28;5.93;;;;;;;22.05;50.60;95699.03;4992146;28;20043;-68
2021/08/10 02:24:28;;;;;;;7.63;7.00;;;;;;;21.61;50.25;95632.97;4989121;28;20052;-68
2021/08/10 02:27:00;;;;;;;7.13;6.53;;;;;;;21.63;50.30;95641.50;4988949;28;20089;-68
2021/08/10 02:29:30;;;;;;;10.45;7.40;;;;;;;21.86;50.35;95690.25;4988635;28;20100;-68
2021/08/10 02:31:56;;;;;;;7.10;6.32;;;;;;;21.80;50.73;95687.84;4989728;28;20121;-68
2021/08/10 02:34:22;;;;;;;8.70;6.75;;;;;;;21.44;50.60;95612.59;4989785;28;20034;-68
2021/08/10 02:36:54;;;;;;;7.25;6.40;;;;;;;21.27;50.61;95595.66;4991494;28;20022;-68
2021/08/10 02:39:21;;;;;;;7.20;6.57;;;;;;;21.34;50.36;95599.66;4989731;28;20034;-68
2021/08/10 02:41:48;;;;;;;7.47;6.75;;;;;;;21.30;50.28;95610.44;4989374;28;20050;-68
2021/08/10 02:44:14;;;;;;;7.03;6.32;;;;;;;21.36;50.32;95613.63;4987440;28;20046;-68
2021/08/10 02:46:40;;;;;;;7.50;6.82;;;;;;;21.35;50.28;95614.78;4989184;28;20534;-69
2021/08/10 02:49:11;;;;;;;8.25;7.40;;;;;;;21.46;50.55;95629.25;4989520;28;20057;-69
2021/08/10 02:51:38;;;;;;;8.52;7.63;;;;;;;21.53;50.71;95651.03;4991549;28;20586;-68
2021/08/10 02:54:04;;;;;;;8.07;6.85;;;;;;;21.23;50.60;95597.53;4989474;28;20057;-68
2021/08/10 02:56:47;;;;;;;9.73;8.38;;;;;;;21.36;50.48;95617.13;4988751;28;20046;-68
2021/08/10 02:59:43;;;;;;;7.68;7.05;;;;;;;21.69;50.64;95664.44;4987789;28;20034;-68
2021/08/10 03:02:16;;;;;;;8.60;5.32;;;;;;;21.58;50.68;95663.47;4988586;28;20073;-69
2021/08/10 03:04:57;;;;;;;8.63;7.10;;;;;;;21.27;50.80;95614.59;4988628;28;20073;-68
2021/08/10 03:07:25;;;;;;;8.10;7.30;;;;;;;21.38;50.82;95627.56;4988886;28;20026;-68
2021/08/10 03:09:55;;;;;;;8.82;7.15;;;;;;;21.07;50.81;95583.34;4991385;28;20030;-68
2021/08/10 03:12:24;;;;;;;7.72;6.93;;;;;;;21.24;50.91;95618.06;4988131;28;20038;-68
2021/08/10 03:14:52;;;;;;;7.60;6.82;;;;;;;21.12;50.96;95612.81;4989640;28;20052;-69
2021/08/10 03:17:19;;;;;;;7.60;6.90;;;;;;;21.50;50.86;95679.59;4988883;28;20058;-69
2021/08/10 03:19:45;;;;;;;9.88;7.68;;;;;;;21.07;50.79;95615.81;4989332;28;20038;-68
2021/08/10 03:22:12;;;;;;;8.35;7.13;;;;;;;20.97;50.87;95603.66;4989786;28;20057;-68
2021/08/10 03:24:40;;;;;;;7.43;6.78;;;;;;;20.88;51.28;95623.94;4992075;28;20022;-68
2021/08/10 03:27:08;;;;;;;8.55;7.15;;;;;;;20.95;51.07;95608.66;4988790;28;20517;-68
2021/08/10 03:29:35;;;;;;;8.48;7.22;;;;;;;21.00;51.17;95615.69;4988608;28;20050;-68
2021/08/10 03:32:02;;;;;;;7.07;6.50;;;;;;;21.00;51.10;95616.47;4988879;28;20145;-68
2021/08/10 03:34:29;;;;;;;6.28;5.78;;;;;;;20.79;51.27;95599.84;4988793;28;20042;-68
2021/08/10 03:36:55;;;;;;;7.93;7.22;;;;;;;20.90;51.12;95608.16;4990658;28;20105;-68
2021/08/10 03:39:21;;;;;;;6.50;5.97;;;;;;;21.12;51.11;95650.66;4988813;28;20437;-68
2021/08/10 03:41:47;;;;;;;7.32;6.70;;;;;;;21.28;51.17;95672.97;4988650;28;20058;-68
2021/08/10 03:44:14;;;;;;;6.95;6.35;;;;;;;20.77;50.90;95594.78;4980741;28;20062;-68
2021/08/10 03:46:41;;;;;;;8.40;7.63;;;;;;;20.89;50.89;95614.72;4988365;28;20046;-68
2021/08/10 03:49:06;;;;;;;8.65;6.72;;;;;;;21.01;50.88;95622.66;4988978;28;20109;-72
2021/08/10 03:51:34;;;;;;;7.82;7.07;;;;;;;21.46;50.61;95672.56;4991070;28;20117;-69
2021/08/10 03:54:00;;;;;;;6.40;5.82;;;;;;;21.39;50.58;95664.31;4988988;28;20034;-69
2021/08/10 03:56:26;;;;;;;6.97;6.30;;;;;;;21.27;50.41;95651.72;4988727;28;20043;-70
2021/08/10 03:58:54;;;;;;;7.93;6.47;;;;;;;21.35;50.61;95666.97;4970747;28;20050;-69
2021/08/10 04:01:23;;;;;;;7.60;6.90;;;;;;;21.28;50.62;95664.88;4988833;28;20022;-69
2021/08/10 04:03:49;;;;;;;7.93;6.75;;;;;;;21.20;50.63;95655.06;4991008;28;20034;-71
2021/08/10 04:06:15;;;;;;;8.73;7.40;;;;;;;21.25;50.82;95668.31;4988699;28;20133;-70
2021/08/10 04:08:42;;;;;;;8.13;6.80;;;;;;;21.23;50.61;95653.56;4989481;28;20113;-76
2021/08/10 04:11:07;;;;;;;6.03;5.43;;;;;;;21.21;50.63;95653.94;4988952;28;20537;-70
2021/08/10 04:13:33;;;;;;;5.70;5.20;;;;;;;21.14;50.88;95634.06;4965123;28;20031;-70
2021/08/10 04:16:02;;;;;;;5.18;4.78;;;;;;;21.16;50.85;95629.88;4992221;28;20098;-73
2021/08/10 04:18:29;;;;;;;5.53;5.03;;;;;;;21.09;50.95;95613.53;4992414;28;20688;-67
2021/08/10 04:20:55;;;;;;;5.68;5.18;;;;;;;20.86;50.83;95570.22;4990630;28;20554;-72
2021/08/10 04:23:22;;;;;;;5.88;5.35;;;;;;;21.00;50.61;95605.66;4990808;28;20054;-66
2021/08/10 04:25:48;;;;;;;5.45;3.88;;;;;;;21.10;50.44;95604.28;4992191;28;20064;-70
2021/08/10 04:28:14;;;;;;;5.18;4.10;;;;;;;21.20;50.63;95624.53;4992013;28;20045;-69
2021/08/10 04:30:41;;;;;;;5.00;3.85;;;;;;;21.29;50.61;95633.19;4994368;28;20018;-70
2021/08/10 04:33:08;;;;;;;6.00;3.75;;;;;;;21.48;50.45;95662.16;4992641;28;20046;-72
2021/08/10 04:35:34;;;;;;;3.55;3.17;;;;;;;21.60;50.42;95653.06;4992372;28;20038;-72
2021/08/10 04:38:02;;;;;;;3.88;3.22;;;;;;;21.67;50.37;95659.38;4992409;28;20408;-72
2021/08/10 04:40:30;;;;;;;3.80;2.78;;;;;;;21.91;49.79;95649.31;4991554;28;20033;-72
2021/08/10 04:42:56;;;;;;;3.17;2.50;;;;;;;22.15;49.56;95646.19;4990601;28;20109;-73
2021/08/10 04:45:22;;;;;;;3.58;3.03;;;;;;;22.44;49.23;95657.44;4990774;28;20041;-72
2021/08/10 04:47:48;;;;;;;2.58;2.30;;;;;;;22.61;48.44;95656.88;4992462;28;20042;-69
2021/08/10 04:50:13;;;;;;;3.75;3.10;;;;;;;22.77;48.19;95652.03;4991133;28;20050;-68
2021/08/10 04:52:39;;;;;;;4.82;2.58;;;;;;;22.93;47.48;95642.94;4991086;28;20120;-71
2021/08/10 04:55:06;;;;;;;4.80;2.50;;;;;;;23.05;47.73;95638.03;4992354;28;20045;-72
2021/08/10 04:57:31;;;;;;;2.40;2.20;;;;;;;23.08;46.95;95636.50;4993174;28;20695;-69
2021/08/10 04:59:57;;;;;;;3.97;2.30;;;;;;;23.32;47.35;95643.34;4974351;28;20129;-67
2021/08/10 05:02:26;;;;;;;4.97;2.50;;;;;;;23.30;46.99;95616.56;4991753;28;20038;-68
2021/08/10 05:04:51;;;;;;;2.55;2.33;;;;;;;23.72;46.66;95647.22;4991777;28;20034;-68
2021/08/10 05:07:17;;;;;;;7.93;3.03;;;;;;;23.85;46.17;95643.81;4991549;28;20033;-68
2021/08/10 05:09:42;;;;;;;6.88;2.97;;;;;;;23.86;46.02;95648.09;4993625;28;20380;-68
2021/08/10 05:12:08;;;;;;;5.53;2.67;;;;;;;24.01;46.44;95645.50;4992026;28;20062;-77
2021/08/10 05:14:34;;;;;;;5.53;2.42;;;;;;;24.05;46.03;95640.84;4987145;28;20145;-68
2021/08/10 05:16:59;;;;;;;4.20;2.88;;;;;;;24.27;45.68;95645.25;4991114;28;20034;-69
2021/08/10 05:19:25;;;;;;;3.95;2.38;;;;;;;24.24;45.88;95640.56;4991583;28;20519;-70
2021/08/10 05:21:50;;;;;;;3.45;2.60;;;;;;;24.32;45.70;95639.47;4993670;28;20058;-70
2021/08/10 05:24:15;;;;;;;4.60;2.65;;;;;;;24.31;45.60;95637.91;4991641;28;20129;-68
2021/08/10 05:26:41;;;;;;;4.30;3.13;;;;;;;24.53;45.38;95629.88;4991095;28;20064;-70
2021/08/10 05:29:06;;;;;;;6.00;2.78;;;;;;;24.64;44.91;95636.13;4986534;28;20057;-73
2021/08/10 05:31:32;;;;;;;3.55;3.10;;;;;;;24.66;44.86;95636.53;4991353;28;20488;-75
2021/08/10 05:33:58;;;;;;;2.70;2.47;;;;;;;24.74;44.84;95642.78;4993786;28;20023;-68
2021/08/10 05:36:23;;;;;;;3.13;2.92;;;;;;;24.84;44.62;95648.25;4989343;28;20745;-71
2021/08/10 05:38:54;;;;;;;6.50;2.78;;;;;;;24.89;44.82;95642.44;4991035;28;20396;-68
2021/08/10 05:41:22;;;;;;;2.60;2.40;;;;;;;24.88;44.72;95643.63;4991406;28;20541;-69
2021/08/10 05:43:49;;;;;;;3.92;3.15;;;;;;;24.95;44.71;95647.53;4987706;28;20046;-67
2021/08/10 05:46:15;;;;;;;5.20;3.00;;;;;;;25.02;44.92;95658.41;4990590;28;20436;-66
2021/08/10 05:48:41;;;;;;;5.65;3.15;;;;;;;25.06;44.64;95659.22;4993100;28;20056;-66
2021/08/10 05:51:06;;;;;;;4.38;2.60;;;;;;;25.11;44.18;95650.69;4990894;28;20065;-66
2021/08/10 05:53:32;;;;;;;6.20;2.90;;;;;;;25.28;44.73;95654.63;4990822;28;20066;-66
2021/08/10 05:55:59;;;;;;;4.15;2.50;;;;;;;24.56;45.14;95654.34;4990367;28;20415;-67
2021/08/10 05:58:25;;;;;;;3.58;2.55;;;;;;;24.59;45.26;95660.97;4987537;28;20043;-66
2021/08/10 06:00:50;;;;;;;6.68;2.80;;;;;;;24.75;45.33;95644.34;4992326;28;20026;-65
2021/08/10 06:03:15;;;;;;;4.53;3.20;;;;;;;24.30;45.67;95649.91;4990322;28;20506;-67
2021/08/10 06:05:41;;;;;;;7.40;3.20;;;;;;;24.44;45.65;95637.59;4986288;28;20034;-69
2021/08/10 06:08:07;;;;;;;5.20;3.00;;;;;;;25.19;44.51;95649.56;4987519;28;20089;-67
2021/08/10 06:10:33;;;;;;;2.92;2.50;;;;;;;25.32;44.17;95617.28;4988438;28;20394;-67
2021/08/10 06:12:58;;;;;;;5.38;3.10;;;;;;;25.30;43.71;95592.41;4991247;28;20022;-66
2021/08/10 06:15:24;;;;;;;5.22;2.95;;;;;;;25.32;43.72;95609.91;4988831;28;20117;-67
2021/08/10 06:17:49;;;;;;;8.85;2.88;;;;;;;25.71;43.46;95636.38;4989949;28;20077;-68
2021/08/10 06:20:15;;;;;;;6.30;3.22;;;;;;;25.72;43.22;95621.59;4988514;28;20066;-68
2021/08/10 06:22:40;;;;;;;6.80;3.42;;;;;;;25.44;43.08;95641.44;4990246;28;20073;-68
2021/08/10 06:25:06;;;;;;;5.68;3.15;;;;;;;25.63;43.76;95641.03;4989937;28;20472;-68
2021/08/10 06:27:32;;;;;;;4.47;2.60;;;;;;;23.98;46.85;95651.66;4991939;28;20098;-67
2021/08/10 06:29:57;;;;;;;3.83;2.60;;;;;;;24.48;46.28;95654.72;4986523;28;20177;-69
2021/08/10 06:32:23;;;;;;;6.38;2.97;;;;;;;24.65;45.21;95594.16;4988092;28;20054;-69
2021/08/10 06:34:48;;;;;;;7.63;3.33;;;;;;;25.87;43.96;95650.41;4990076;28;20488;-66
2021/08/10 06:37:13;;;;;;;4.75;2.95;;;;;;;26.17;43.48;95644.56;4988951;28;20030;-66
2021/08/10 06:39:39;;;;;;;7.70;3.17;;;;;;;26.46;42.88;95638.25;4991474;28;20037;-66
2021/08/10 06:42:04;;;;;;;5.95;3.25;;;;;;;25.95;42.90;95636.78;4989381;28;20034;-66
2021/08/10 06:44:30;;;;;;;4.38;2.78;;;;;;;24.97;45.41;95662.28;4988095;28;20392;-65
2021/08/10 06:46:55;;;;;;;5.93;2.80;;;;;;;24.66;46.15;95622.94;4989359;28;20038;-65
2021/08/10 06:49:21;;;;;;;7.35;2.97;;;;;;;24.90;45.20;95626.91;4988803;28;20030;-66
2021/08/10 06:51:47;;;;;;;9.82;2.85;;;;;;;25.28;45.27;95649.94;4991705;28;20496;-69
2021/08/10 06:54:12;;;;;;;6.47;3.00;;;;;;;25.34;44.58;95614.97;4989573;28;20037;-70
2021/08/10 06:56:37;;;;;;;4.95;2.72;;;;;;;24.47;46.50;95609.66;4989167;28;20062;-70
2021/08/10 06:59:03;;;;;;;4.90;2.78;;;;;;;25.21;45.93;95649.94;4988000;28;20042;-71
2021/08/10 07:01:28;;;;;;;6.50;2.22;;;;;;;24.22;46.65;95614.94;4988842;28;20046;-71
2021/08/10 07:03:54;;;;;;;5.00;2.40;;;;;;;23.94;48.66;95667.16;4990264;28;20469;-71
2021/08/10 07:06:21;;;;;;;3.67;2.72;;;;;;;24.11;47.17;95609.44;4988961;28;20062;-70
2021/08/10 07:08:48;;;;;;;4.55;2.50;;;;;;;24.81;46.23;95668.06;4989046;28;20042;-71
2021/08/10 07:11:13;;;;;;;2.95;2.20;;;;;;;25.04;45.89;95656.88;4970730;28;20030;-73
2021/08/10 07:13:39;;;;;;;3.38;2.40;;;;;;;25.42;43.85;95617.28;4988652;28;20447;-72
2021/08/10 07:16:04;;;;;;;3.05;2.53;;;;;;;26.57;42.62;95660.84;4988980;28;20030;-74
2021/08/10 07:18:30;;;;;;;3.15;2.33;;;;;;;26.28;42.38;95584.53;4974045;28;20586;-72
2021/08/10 07:20:55;;;;;;;3.17;2.45;;;;;;;26.72;41.72;95659.63;4988886;28;20034;-72
2021/08/10 07:23:20;;;;;;;3.08;2.70;;;;;;;27.27;41.34;95648.06;4989244;28;20061;-73
2021/08/10 07:25:46;;;;;;;3.88;2.70;;;;;;;27.24;40.80;95597.00;4971041;28;20153;-73
2021/08/10 07:28:11;;;;;;;2.20;2.00;;;;;;;27.53;40.01;95621.34;4988995;28;20030;-73
2021/08/10 07:30:37;;;;;;;3.03;2.67;;;;;;;26.21;41.72;95605.56;4991227;28;20361;-72
2021/08/10 07:33:02;;;;;;;3.28;2.60;;;;;;;26.64;41.67;95661.59;4987581;28;20035;-72
2021/08/10 07:35:27;;;;;;;3.70;2.78;;;;;;;26.06;42.70;95641.06;4988459;28;20049;-72
2021/08/10 07:37:53;;;;;;;3.45;2.70;;;;;;;26.65;41.50;95624.16;4986997;28;20147;-72
2021/08/10 07:40:18;;;;;;;3.90;2.35;;;;;;;25.73;44.17;95597.84;4987648;28;20059;-72
2021/08/10 07:42:44;;;;;;;5.47;2.45;;;;;;;25.19;44.70;95597.06;4991078;28;20436;-72
2021/08/10 07:45:10;;;;;;;2.97;2.10;;;;;;;25.68;44.91;95593.56;4981523;28;20073;-73
2021/08/10 07:47:35;;;;;;;3.70;2.47;;;;;;;26.64;43.25;95633.53;4988205;28;20101;-72
2021/08/10 07:50:01;;;;;;;4.47;2.55;;;;;;;27.20;42.02;95596.22;4987598;28;20123;-71
2021/08/10 07:52:27;;;;;;;3.35;2.50;;;;;;;27.59;41.03;95601.41;4992199;28;20089;-72
2021/08/10 07:54:52;;;;;;;3.85;2.15;;;;;;;28.12;40.96;95635.72;4995147;28;20101;-73
2021/08/10 07:57:18;;;;;;;3.38;2.50;;;;;;;28.05;40.35;95608.44;4992118;28;20399;-72
2021/08/10 07:59:43;;;;;;;2.22;2.00;;;;;;;27.16;40.28;95626.28;4976713;28;20042;-72
2021/08/10 08:02:08;;;;;;;2.70;2.17;;;;;;;26.47;41.65;95629.69;4987583;28;20031;-73
2021/08/10 08:04:35;;;;;;;3.72;2.13;;;;;;;27.28;39.69;95638.72;4992697;28;20034;-73
2021/08/10 08:07:03;;;;;;;2.75;2.42;;;;;;;28.30;38.66;95657.41;4994545;28;20114;-72
2021/08/10 08:09:29;;;;;;;5.32;2.50;;;;;;;27.27;38.40;95600.84;4992432;28;20045;-72
2021/08/10 08:11:54;;;;;;;2.90;2.60;;;;;;;28.48;37.34;95619.72;4990507;28;20042;-72
2021/08/10 08:14:21;;;;;;;4.10;2.72;;;;;;;27.88;38.19;95612.13;4986109;28;20047;-72
2021/08/10 08:16:47;;;;;;;2.22;2.03;;;;;;;27.81;39.15;95656.69;4991945;28;20031;-72
2021/08/10 08:19:13;;;;;;;2.90;2.40;;;;;;;27.08;38.96;95607.63;4992419;28;20030;-73
2021/08/10 08:21:38;;;;;;;4.22;2.50;;;;;;;27.75;38.13;95579.06;4994738;28;20436;-72
2021/08/10 08:24:04;;;;;;;4.43;2.53;;;;;;;28.27;36.36;95603.53;4991982;28;20070;-72
2021/08/10 08:26:30;;;;;;;3.28;2.50;;;;;;;28.38;36.20;95587.03;4974782;28;20109;-72
2021/08/10 08:28:55;;;;;;;3.83;2.70;;;;;;;28.52;35.11;95629.88;4988399;28;20046;-72
2021/08/10 08:31:21;;;;;;;2.35;2.15;;;;;;;27.66;35.44;95623.22;4971201;28;20085;-72
2021/08/10 08:33:47;;;;;;;4.75;2.05;;;;;;;27.90;34.61;95667.97;4994430;28;20105;-72
2021/08/10 08:36:12;;;;;;;2.45;2.25;;;;;;;27.31;34.77;95604.34;4974340;28;20129;-73
2021/08/10 08:38:37;;;;;;;2.67;2.30;;;;;;;27.84;34.49;95612.13;4991816;28;20502;-72
2021/08/10 08:41:04;;;;;;;2.47;2.28;;;;;;;28.64;34.22;95627.38;4992117;28;20138;-72
2021/08/10 08:43:30;;;;;;;2.63;2.40;;;;;;;28.04;35.32;95597.91;4992169;28;20038;-72
2021/08/10 08:45:56;;;;;;;2.13;1.83;;;;;;;28.98;33.67;95616.41;4988504;28;20034;-72
2021/08/10 08:48:24;;;;;;;2.50;2.30;;;;;;;28.19;34.05;95610.25;4991920;28;20049;-72
2021/08/10 08:50:50;;;;;;;4.60;2.47;;;;;;;28.95;33.26;95666.53;4992044;28;20077;-72
2021/08/10 08:53:16;;;;;;;2.58;1.95;;;;;;;28.18;33.88;95611.44;4992066;28;20031;-73
2021/08/10 08:55:43;;;;;;;2.67;2.45;;;;;;;28.80;32.47;95629.53;4991485;28;20089;-72
2021/08/10 08:58:09;;;;;;;2.65;2.42;;;;;;;28.22;35.20;95618.41;4991830;28;20054;-73
2021/08/10 09:00:34;;;;;;;2.60;2.40;;;;;;;28.84;34.48;95632.22;4989031;28;20716;-73
2021/08/10 09:03:00;;;;;;;3.42;2.60;;;;;;;27.69;34.17;95594.28;4991566;28;20069;-72
2021/08/10 09:05:26;;;;;;;6.85;2.97;;;;;;;29.16;32.60;95679.16;4991961;28;20031;-73
2021/08/10 09:07:55;;;;;;;3.75;2.47;;;;;;;28.59;33.16;95605.91;4989628;28;20528;-72
2021/08/10 09:10:29;;;;;;;2.50;2.30;;;;;;;28.67;33.70;95632.03;4991018;28;20057;-72
2021/08/10 09:12:56;;;;;;;3.13;2.50;;;;;;;29.87;32.49;95624.50;5008875;28;20044;-73
2021/08/10 09:15:40;;;;;;;3.58;2.30;;;;;;;30.60;31.46;95653.78;4975515;28;20453;-72
2021/08/10 09:18:14;;;;;;;5.30;2.72;;;;;;;30.86;30.43;95624.66;4991127;28;20480;-72
2021/08/10 09:20:41;;;;;;;3.78;2.40;;;;;;;30.66;30.22;95634.84;4991262;28;20606;-73
2021/08/10 09:23:06;;;;;;;5.05;3.08;;;;;;;30.21;30.21;95658.03;4991026;28;20045;-73
2021/08/10 09:25:34;;;;;;;3.40;2.47;;;;;;;28.65;33.35;95633.63;4990881;28;20035;-73
2021/08/10 09:28:09;;;;;;;4.60;2.47;;;;;;;29.20;32.39;95657.97;4993099;28;20641;-73
2021/08/10 09:30:35;;;;;;;2.70;2.50;;;;;;;30.53;31.58;95640.97;4987478;28;20066;-73
2021/08/10 09:33:03;;;;;;;2.45;2.20;;;;;;;31.12;28.59;95633.13;4989609;28;20810;-73
2021/08/10 09:35:33;;;;;;;2.83;2.60;;;;;;;30.21;28.49;95608.66;4991217;28;20037;-73
2021/08/10 09:38:08;;;;;;;2.97;2.67;;;;;;;30.72;28.99;95600.25;4989680;28;20460;-73
2021/08/10 09:40:37;;;;;;;2.83;2.63;;;;;;;31.49;27.87;95601.72;4989253;28;20044;-72
2021/08/10 09:43:24;;;;;;;2.75;2.00;;;;;;;31.39;27.91;95625.50;4993183;28;20026;-72
2021/08/10 09:46:04;;;;;;;4.40;2.40;;;;;;;31.05;27.65;95617.59;4987945;28;20076;-72
2021/08/10 09:48:30;;;;;;;3.85;2.65;;;;;;;31.37;28.03;95586.66;4991476;28;20125;-72
2021/08/10 09:51:05;;;;;;;4.80;3.00;;;;;;;31.14;29.02;95589.53;4990928;28;20129;-72
2021/08/10 09:53:31;;;;;;;3.20;2.90;;;;;;;31.19;28.25;95581.56;4990956;28;20031;-72
2021/08/10 09:55:58;;;;;;;2.78;2.45;;;;;;;31.58;28.21;95580.66;4989280;28;20050;-73
2021/08/10 09:58:24;;;;;;;5.95;2.80;;;;;;;31.57;27.17;95581.84;4991084;28;20022;-72
2021/08/10 10:00:55;;;;;;;2.33;2.22;;;;;;;31.13;28.03;95585.25;4989967;28;20484;-73
2021/08/10 10:03:24;;;;;;;3.05;2.70;;;;;;;29.69;29.15;95573.50;4990513;28;20046;-72
2021/08/10 10:05:50;;;;;;;2.85;2.47;;;;;;;29.73;28.79;95595.34;4990626;28;20035;-72
2021/08/10 10:08:24;;;;;;;2.42;2.20;;;;;;;30.10;28.15;95579.81;4990852;28;20105;-72
2021/08/10 10:10:51;;;;;;;3.70;2.13;;;;;;;30.17;28.78;95629.88;4990257;28;20045;-72
2021/08/10 10:13:18;;;;;;;2.45;2.25;;;;;;;31.54;27.61;95623.97;4990155;28;20038;-72
2021/08/10 10:15:45;;;;;;;4.13;2.33;;;;;;;31.89;27.53;95607.03;4991361;28;20042;-72
2021/08/10 10:18:12;;;;;;;2.60;2.28;;;;;;;31.15;27.69;95591.84;4989974;28;20129;-71
2021/08/10 10:20:41;;;;;;;2.17;2.00;;;;;;;31.52;25.96;95554.88;4990284;28;20042;-72
2021/08/10 10:23:09;;;;;;;5.40;2.75;;;;;;;32.24;26.81;95619.88;4990483;28;20038;-72
2021/08/10 10:25:35;;;;;;;2.55;2.35;;;;;;;31.61;27.20;95622.25;4990126;28;20096;-73
2021/08/10 10:28:02;;;;;;;2.83;2.42;;;;;;;30.51;27.85;95561.00;4992315;28;20081;-72
2021/08/10 10:30:28;;;;;;;4.53;2.40;;;;;;;31.15;28.00;95571.84;4988503;28;20699;-72
2021/08/10 10:32:54;;;;;;;3.35;2.67;;;;;;;31.48;28.71;95617.44;4989999;28;20041;-72
2021/08/10 10:35:21;;;;;;;2.95;2.30;;;;;;;31.43;28.25;95565.72;4990116;28;20070;-72
2021/08/10 10:37:48;;;;;;;5.22;2.90;;;;;;;31.61;27.82;95567.25;4989808;28;20046;-72
2021/08/10 10:40:18;;;;;;;3.00;2.70;;;;;;;31.38;28.61;95603.91;4989731;28;20049;-72
2021/08/10 10:42:50;;;;;;;2.75;2.55;;;;;;;31.09;28.42;95549.59;5007314;28;20019;-72
2021/08/10 10:45:38;;;;;;;3.00;2.28;;;;;;;32.04;27.91;95595.25;4988862;28;20045;-72
2021/08/10 10:48:33;;;;;;;3.22;2.20;;;;;;;32.38;27.94;95601.47;4989788;28;20066;-72
2021/08/10 10:51:12;;;;;;;3.38;2.38;;;;;;;31.70;28.01;95600.41;4962822;28;20167;-72
2021/08/10 10:53:46;;;;;;;2.53;2.33;;;;;;;29.63;30.81;95555.94;4970813;28;20031;-72
2021/08/10 10:56:30;;;;;;;4.15;2.60;;;;;;;30.53;29.95;95580.56;4969848;28;20050;-72
2021/08/10 10:59:19;;;;;;;2.60;2.40;;;;;;;31.57;28.61;95600.31;4970028;28;20564;-72
2021/08/10 11:01:44;;;;;;;2.90;2.22;;;;;;;29.26;30.89;95622.66;4958081;28;20141;-72
2021/08/10 11:04:11;;;;;;;2.47;2.28;;;;;;;29.28;30.54;95603.88;4989406;28;20113;-72
2021/08/10 11:06:48;;;;;;;3.53;2.45;;;;;;;29.64;30.09;95570.44;4991129;28;20023;-72
2021/08/10 11:09:36;;;;;;;2.70;2.28;;;;;;;30.84;28.93;95598.81;4971975;28;20057;-72
2021/08/10 11:12:02;;;;;;;4.35;3.03;;;;;;;31.22;28.04;95538.69;4989347;28;20074;-73
2021/08/10 11:14:36;;;;;;;2.58;2.38;;;;;;;32.23;27.46;95584.53;4986723;28;20514;-73
2021/08/10 11:17:11;;;;;;;2.78;2.35;;;;;;;32.52;27.49;95584.56;4968483;28;20047;-73
2021/08/10 11:19:38;;;;;;;3.20;2.60;;;;;;;31.75;27.93;95517.38;4969911;28;20129;-73
2021/08/10 11:22:15;;;;;;;2.30;2.10;;;;;;;31.22;29.18;95588.94;4972153;28;20117;-72
2021/08/10 11:24:45;;;;;;;2.63;2.20;;;;;;;30.90;28.85;95578.66;4969088;28;20077;-74
2021/08/10 11:27:30;;;;;;;2.92;2.53;;;;;;;29.48;30.56;95547.19;4968476;28;20085;-72
2021/08/10 11:29:57;;;;;;;3.28;2.13;;;;;;;29.99;30.06;95544.34;4969323;28;20042;-74
2021/08/10 11:32:46;;;;;;;3.22;2.30;;;;;;;31.11;28.64;95529.94;4969945;28;20038;-72
2021/08/10 11:35:39;;;;;;;2.63;2.40;;;;;;;30.76;28.97;95532.25;4989070;28;20578;-72
2021/08/10 11:38:15;;;;;;;3.00;2.20;;;;;;;31.10;27.78;95572.34;4971500;28;20148;-73